createdAt,value
2018-07-14T00:00:34.280Z,98317.60
2018-07-14T00:01:37.211Z,98316.39
2018-07-14T00:02:41.479Z,98321.91
2018-07-14T00:03:44.480Z,98322.98
2018-07-14T00:04:47.367Z,98317.72
2018-07-14T00:05:50.245Z,98318.20
2018-07-14T00:06:53.044Z,98317.40
2018-07-14T00:07:56.990Z,98320.07
2018-07-14T00:09:00.174Z,98317.53
2018-07-14T00:10:03.327Z,98318.24
2018-07-14T00:11:08.133Z,98319.53
2018-07-14T00:12:11.013Z,98317.69
2018-07-14T00:13:13.852Z,98321.31
2018-07-14T00:14:16.713Z,98315.31
2018-07-14T00:15:19.850Z,98322.79
2018-07-14T00:16:22.718Z,98322.69
2018-07-14T00:17:26.454Z,98325.00
2018-07-14T00:18:29.333Z,98323.23
2018-07-14T00:19:33.459Z,98329.09
2018-07-14T00:20:36.286Z,98325.03
2018-07-14T00:21:40.398Z,98325.26
2018-07-14T00:22:43.257Z,98332.87
2018-07-14T00:23:46.745Z,98328.11
2018-07-14T00:24:50.254Z,98326.83
2018-07-14T00:25:57.863Z,98327.58
2018-07-14T00:27:02.047Z,98327.14
2018-07-14T00:28:05.171Z,98324.72
2018-07-14T00:29:08.004Z,98321.33
2018-07-14T00:30:11.410Z,98319.11
2018-07-14T00:31:14.238Z,98322.48
2018-07-14T00:32:17.092Z,98319.57
2018-07-14T00:33:19.995Z,98317.53
2018-07-14T00:34:23.757Z,98313.75
2018-07-14T00:35:26.733Z,98316.19
2018-07-14T00:36:30.293Z,98318.77
2018-07-14T00:37:33.145Z,98317.98
2018-07-14T00:38:37.051Z,98322.89
2018-07-14T00:39:39.894Z,98323.14
2018-07-14T00:40:43.030Z,98322.59
2018-07-14T00:41:46.477Z,98321.31
2018-07-14T00:42:49.353Z,98329.87
2018-07-14T00:43:52.989Z,98326.39
2018-07-14T00:44:55.825Z,98317.98
2018-07-14T00:45:59.093Z,98320.82
2018-07-14T00:47:02.246Z,98326.53
2018-07-14T00:48:05.318Z,98322.91
2018-07-14T00:49:08.826Z,98327.41
2018-07-14T00:50:11.661Z,98327.72
2018-07-14T00:51:14.505Z,98321.56
2018-07-14T00:52:20.869Z,98321.20
2018-07-14T00:53:23.711Z,98320.14
2018-07-14T00:54:26.548Z,98317.42
2018-07-14T00:55:30.562Z,98317.16
2018-07-14T00:56:34.270Z,98324.09
2018-07-14T00:57:37.134Z,98318.83
2018-07-14T00:58:39.962Z,98321.44
2018-07-14T00:59:43.084Z,98320.13
2018-07-14T01:00:47.188Z,98322.52
2018-07-14T01:01:51.684Z,98313.62
2018-07-14T01:02:55.497Z,98318.85
2018-07-14T01:03:59.576Z,98319.44
2018-07-14T01:05:02.384Z,98316.59
2018-07-14T01:06:06.837Z,98322.67
2018-07-14T01:07:10.573Z,98319.09
2018-07-14T01:08:14.272Z,98317.22
2018-07-14T01:09:17.084Z,98322.34
2018-07-14T01:10:19.892Z,98325.87
2018-07-14T01:11:22.714Z,98320.97
2018-07-14T01:12:26.794Z,98321.86
2018-07-14T01:13:29.624Z,98332.78
2018-07-14T01:14:32.545Z,98325.20
2018-07-14T01:15:36.978Z,98322.63
2018-07-14T01:16:40.910Z,98323.45
2018-07-14T01:17:43.745Z,98326.53
2018-07-14T01:18:46.822Z,98324.13
2018-07-14T01:19:50.081Z,98325.31
2018-07-14T01:20:52.890Z,98328.25
2018-07-14T01:21:57.270Z,98326.83
2018-07-14T01:23:00.138Z,98330.16
2018-07-14T01:24:03.104Z,98329.52
2018-07-14T01:25:06.886Z,98326.63
2018-07-14T01:26:09.729Z,98329.71
2018-07-14T01:27:12.550Z,98323.98
2018-07-14T01:28:15.428Z,98320.76
2018-07-14T01:29:18.212Z,98319.08
2018-07-14T01:30:21.051Z,98320.28
2018-07-14T01:31:24.219Z,98322.75
2018-07-14T01:32:27.093Z,98325.84
2018-07-14T01:33:29.958Z,98319.34
2018-07-14T01:34:34.648Z,98325.63
2018-07-14T01:35:38.688Z,98327.30
2018-07-14T01:36:41.522Z,98318.97
2018-07-14T01:37:44.713Z,98322.05
2018-07-14T01:38:47.660Z,98320.73
2018-07-14T01:39:50.459Z,98315.69
2018-07-14T01:40:53.286Z,98324.66
2018-07-14T01:41:56.900Z,98321.19
2018-07-14T01:42:59.729Z,98320.14
2018-07-14T01:44:02.873Z,98324.45
2018-07-14T01:45:05.729Z,98320.53
2018-07-14T01:46:08.513Z,98321.77
2018-07-14T01:47:11.341Z,98319.80
2018-07-14T01:48:14.173Z,98323.05
2018-07-14T01:49:17.097Z,98314.02
2018-07-14T01:50:20.308Z,98316.27
2018-07-14T01:51:23.122Z,98317.27
2018-07-14T01:52:25.984Z,98312.24
2018-07-14T01:53:28.814Z,98316.09
2018-07-14T01:54:31.647Z,98315.69
2018-07-14T01:55:34.530Z,98315.22
2018-07-14T01:56:38.494Z,98315.02
2018-07-14T01:57:41.329Z,98317.50
2018-07-14T01:58:44.181Z,98315.27
2018-07-14T01:59:47.000Z,98309.73
2018-07-14T02:00:49.857Z,98315.21
2018-07-14T02:01:52.706Z,98313.71
2018-07-14T02:02:55.837Z,98318.14
2018-07-14T02:03:58.660Z,98314.27
2018-07-14T02:05:01.513Z,98321.72
2018-07-14T02:06:04.340Z,98316.09
2018-07-14T02:07:08.280Z,98315.95
2018-07-14T02:08:11.119Z,98316.86
2018-07-14T02:09:14.229Z,98319.02
2018-07-14T02:10:18.061Z,98314.30
2018-07-14T02:11:20.924Z,98317.36
2018-07-14T02:12:24.546Z,98318.69
2018-07-14T02:13:27.346Z,98308.81
2018-07-14T02:14:30.218Z,98314.08
2018-07-14T02:15:33.385Z,98312.56
2018-07-14T02:16:36.210Z,98311.33
2018-07-14T02:17:39.873Z,98312.93
2018-07-14T02:18:42.759Z,98312.42
2018-07-14T02:19:45.585Z,98320.48
2018-07-14T02:20:49.043Z,98314.35
2018-07-14T02:21:52.165Z,98317.14
2018-07-14T02:22:54.997Z,98318.77
2018-07-14T02:23:57.821Z,98314.66
2018-07-14T02:25:00.651Z,98317.83
2018-07-14T02:26:03.492Z,98316.52
2018-07-14T02:27:06.325Z,98316.91
2018-07-14T02:28:09.212Z,98320.89
2018-07-14T02:29:12.063Z,98323.45
2018-07-14T02:30:15.451Z,98320.67
2018-07-14T02:31:18.315Z,98322.22
2018-07-14T02:32:21.132Z,98323.38
2018-07-14T02:33:24.040Z,98322.17
2018-07-14T02:34:27.209Z,98318.09
2018-07-14T02:35:30.056Z,98321.86
2018-07-14T02:36:32.878Z,98327.33
2018-07-14T02:37:35.714Z,98327.03
2018-07-14T02:38:38.593Z,98326.30
2018-07-14T02:39:41.453Z,98327.34
2018-07-14T02:40:44.594Z,98330.56
2018-07-14T02:41:47.447Z,98329.24
2018-07-14T02:42:50.273Z,98322.06
2018-07-14T02:43:53.133Z,98321.63
2018-07-14T02:44:56.104Z,98321.47
2018-07-14T02:45:58.958Z,98313.84
2018-07-14T02:47:02.078Z,98316.16
2018-07-14T02:48:06.065Z,98322.70
2018-07-14T02:49:08.913Z,98322.80
2018-07-14T02:50:11.723Z,98320.31
2018-07-14T02:51:14.573Z,98322.48
2018-07-14T02:52:17.411Z,98319.88
2018-07-14T02:53:22.412Z,98322.00
2018-07-14T02:54:27.265Z,98318.64
2018-07-14T02:55:30.139Z,98313.71
2018-07-14T02:56:32.966Z,98315.13
2018-07-14T02:57:35.763Z,98314.44
2018-07-14T02:58:38.599Z,98321.03
2018-07-14T02:59:41.753Z,98315.91
2018-07-14T03:00:44.584Z,98318.10
2018-07-14T03:01:47.405Z,98314.90
2018-07-14T03:02:50.200Z,98313.48
2018-07-14T03:03:53.009Z,98314.78
2018-07-14T03:04:55.811Z,98314.96
2018-07-14T03:05:58.894Z,98317.97
2018-07-14T03:07:01.724Z,98318.01
2018-07-14T03:08:04.547Z,98317.33
2018-07-14T03:09:07.349Z,98319.52
2018-07-14T03:10:10.463Z,98322.19
2018-07-14T03:11:13.260Z,98323.23
2018-07-14T03:12:16.340Z,98325.53
2018-07-14T03:13:19.150Z,98323.17
2018-07-14T03:14:23.531Z,98318.67
2018-07-14T03:15:26.321Z,98327.23
2018-07-14T03:16:29.147Z,98322.64
2018-07-14T03:17:31.958Z,98323.09
2018-07-14T03:18:35.075Z,98320.12
2018-07-14T03:19:37.927Z,98328.36
2018-07-14T03:20:40.761Z,98323.89
2018-07-14T03:21:43.566Z,98324.37
2018-07-14T03:22:46.395Z,98323.70
2018-07-14T03:23:49.560Z,98325.38
2018-07-14T03:24:52.826Z,98317.84
2018-07-14T03:25:55.650Z,98319.89
2018-07-14T03:26:58.484Z,98324.97
2018-07-14T03:28:01.351Z,98317.59
2018-07-14T03:29:04.182Z,98318.37
2018-07-14T03:30:06.982Z,98309.50
2018-07-14T03:31:10.089Z,98321.93
2018-07-14T03:32:12.915Z,98318.20
2018-07-14T03:33:15.805Z,98317.08
2018-07-14T03:34:18.688Z,98320.05
2018-07-14T03:35:21.485Z,98316.80
2018-07-14T03:36:24.309Z,98314.43
2018-07-14T03:37:27.462Z,98319.89
2018-07-14T03:38:30.289Z,98312.50
2018-07-14T03:39:33.123Z,98318.19
2018-07-14T03:40:35.954Z,98317.41
2018-07-14T03:41:38.777Z,98320.25
2018-07-14T03:42:41.632Z,98319.67
2018-07-14T03:43:44.758Z,98319.77
2018-07-14T03:44:47.593Z,98315.92
2018-07-14T03:45:50.526Z,98328.48
2018-07-14T03:46:53.365Z,98319.72
2018-07-14T03:47:56.199Z,98323.87
2018-07-14T03:48:59.034Z,98316.67
2018-07-14T03:50:02.151Z,98322.78
2018-07-14T03:51:05.034Z,98314.56
2018-07-14T03:52:07.852Z,98323.32
2018-07-14T03:53:10.721Z,98316.47
2018-07-14T03:54:13.540Z,98320.34
2018-07-14T03:55:16.362Z,98320.31
2018-07-14T03:56:19.542Z,98321.35
2018-07-14T03:57:22.371Z,98318.31
2018-07-14T03:58:25.196Z,98317.86
2018-07-14T03:59:28.037Z,98313.20
2018-07-14T04:00:30.891Z,98321.53
2018-07-14T04:01:33.721Z,98321.42
2018-07-14T04:02:36.646Z,98316.08
2018-07-14T04:03:39.470Z,98321.55
2018-07-14T04:04:42.294Z,98316.06
2018-07-14T04:05:45.113Z,98318.45
2018-07-14T04:06:47.933Z,98316.66
2018-07-14T04:07:50.757Z,98319.72
2018-07-14T04:08:53.908Z,98324.53
2018-07-14T04:09:56.737Z,98323.03
2018-07-14T04:10:59.618Z,98317.44
2018-07-14T04:12:02.436Z,98327.58
2018-07-14T04:13:05.263Z,98321.98
2018-07-14T04:14:08.131Z,98327.31
2018-07-14T04:15:13.544Z,98324.94
2018-07-14T04:16:16.420Z,98322.23
2018-07-14T04:17:19.246Z,98323.94
2018-07-14T04:18:22.067Z,98322.77
2018-07-14T04:19:24.952Z,98323.88
2018-07-14T04:20:27.792Z,98317.94
2018-07-14T04:21:30.905Z,98321.81
2018-07-14T04:22:33.741Z,98326.31
2018-07-14T04:23:36.569Z,98320.69
2018-07-14T04:24:39.416Z,98322.07
2018-07-14T04:25:42.252Z,98325.39
2018-07-14T04:26:45.100Z,98317.95
2018-07-14T04:27:48.472Z,98328.40
2018-07-14T04:28:51.423Z,98327.38
2018-07-14T04:29:54.279Z,98328.57
2018-07-14T04:30:57.121Z,98327.53
2018-07-14T04:32:00.011Z,98325.30
2018-07-14T04:33:02.841Z,98329.03
2018-07-14T04:34:06.013Z,98332.63
2018-07-14T04:35:08.853Z,98327.01
2018-07-14T04:36:11.683Z,98331.13
2018-07-14T04:37:14.509Z,98324.95
2018-07-14T04:38:17.357Z,98325.16
2018-07-14T04:39:20.217Z,98320.35
2018-07-14T04:40:23.500Z,98324.01
2018-07-14T04:41:26.340Z,98325.45
2018-07-14T04:42:29.225Z,98322.25
2018-07-14T04:43:32.082Z,98328.66
2018-07-14T04:44:34.909Z,98329.88
2018-07-14T04:45:37.752Z,98324.16
2018-07-14T04:46:41.518Z,98329.05
2018-07-14T04:47:44.348Z,98330.23
2018-07-14T04:48:47.156Z,98332.72
2018-07-14T04:49:49.964Z,98329.08
2018-07-14T04:50:52.800Z,98331.41
2018-07-14T04:51:55.651Z,98320.72
2018-07-14T04:52:59.402Z,98335.86
2018-07-14T04:54:02.239Z,98334.81
2018-07-14T04:55:05.048Z,98328.33
2018-07-14T04:56:07.876Z,98332.94
2018-07-14T04:57:10.728Z,98326.83
2018-07-14T04:58:13.575Z,98325.89
2018-07-14T04:59:16.683Z,98326.02
2018-07-14T05:00:19.559Z,98330.14
2018-07-14T05:01:22.388Z,98332.72
2018-07-14T05:02:25.211Z,98326.67
2018-07-14T05:03:28.146Z,98330.66
2018-07-14T05:04:30.984Z,98331.39
2018-07-14T05:05:34.144Z,98333.03
2018-07-14T05:06:36.977Z,98332.85
2018-07-14T05:07:39.886Z,98336.88
2018-07-14T05:08:42.821Z,98332.98
2018-07-14T05:09:45.672Z,98331.11
2018-07-14T05:10:48.518Z,98335.59
2018-07-14T05:11:51.665Z,98334.85
2018-07-14T05:12:54.514Z,98334.27
2018-07-14T05:13:57.356Z,98331.44
2018-07-14T05:15:00.198Z,98334.68
2018-07-14T05:16:06.490Z,98334.59
2018-07-14T05:17:09.314Z,98335.28
2018-07-14T05:18:12.481Z,98334.48
2018-07-14T05:19:15.338Z,98331.03
2018-07-14T05:20:18.178Z,98336.34
2018-07-14T05:21:21.109Z,98332.83
2018-07-14T05:22:23.933Z,98334.03
2018-07-14T05:23:26.781Z,98333.11
2018-07-14T05:24:29.900Z,98329.91
2018-07-14T05:25:32.719Z,98326.73
2018-07-14T05:26:35.529Z,98334.73
2018-07-14T05:27:38.320Z,98331.95
2018-07-14T05:28:41.908Z,98331.40
2018-07-14T05:29:44.690Z,98324.69
2018-07-14T05:30:47.769Z,98330.55
2018-07-14T05:31:50.628Z,98329.04
2018-07-14T05:32:53.439Z,98330.06
2018-07-14T05:33:56.238Z,98330.30
2018-07-14T05:34:59.019Z,98331.95
2018-07-14T05:36:01.871Z,98332.84
2018-07-14T05:37:05.341Z,98324.06
2018-07-14T05:38:08.242Z,98322.11
2018-07-14T05:39:11.072Z,98317.55
2018-07-14T05:40:13.909Z,98321.75
2018-07-14T05:41:16.724Z,98319.67
2018-07-14T05:42:19.576Z,98316.47
2018-07-14T05:43:22.949Z,98323.58
2018-07-14T05:44:25.779Z,98322.13
2018-07-14T05:45:28.725Z,98323.28
2018-07-14T05:46:31.546Z,98322.41
2018-07-14T05:47:34.353Z,98319.66
2018-07-14T05:48:37.233Z,98322.91
2018-07-14T05:49:40.365Z,98329.06
2018-07-14T05:50:43.183Z,98317.99
2018-07-14T05:51:46.048Z,98331.36
2018-07-14T05:52:48.859Z,98326.53
2018-07-14T05:53:51.699Z,98323.92
2018-07-14T05:54:54.560Z,98330.53
2018-07-14T05:55:57.715Z,98329.45
2018-07-14T05:57:00.566Z,98335.28
2018-07-14T05:58:03.443Z,98329.47
2018-07-14T05:59:06.308Z,98333.42
2018-07-14T06:00:09.639Z,98329.74
2018-07-14T06:01:12.493Z,98334.88
2018-07-14T06:02:15.743Z,98339.11
2018-07-14T06:03:18.669Z,98329.54
2018-07-14T06:04:21.509Z,98336.05
2018-07-14T06:05:24.440Z,98333.69
2018-07-14T06:06:27.307Z,98338.41
2018-07-14T06:07:30.165Z,98340.34
2018-07-14T06:08:33.316Z,98336.00
2018-07-14T06:09:36.184Z,98341.87
2018-07-14T06:10:39.056Z,98336.88
2018-07-14T06:11:42.016Z,98345.22
2018-07-14T06:12:44.981Z,98342.68
2018-07-14T06:13:49.685Z,98340.25
2018-07-14T06:14:53.160Z,98341.02
2018-07-14T06:15:55.969Z,98345.27
2018-07-14T06:16:58.799Z,98338.59
2018-07-14T06:18:01.639Z,98348.25
2018-07-14T06:19:04.502Z,98348.44
2018-07-14T06:20:07.321Z,98341.85
2018-07-14T06:21:10.438Z,98349.67
2018-07-14T06:22:13.354Z,98347.90
2018-07-14T06:23:16.215Z,98348.67
2018-07-14T06:24:19.009Z,98345.81
2018-07-14T06:25:21.834Z,98348.37
2018-07-14T06:26:24.644Z,98346.00
2018-07-14T06:27:27.823Z,98348.66
2018-07-14T06:28:30.689Z,98352.41
2018-07-14T06:29:33.482Z,98350.38
2018-07-14T06:30:36.447Z,98345.47
2018-07-14T06:31:39.330Z,98349.53
2018-07-14T06:32:42.302Z,98350.29
2018-07-14T06:33:45.421Z,98350.38
2018-07-14T06:34:48.941Z,98351.82
2018-07-14T06:35:51.794Z,98348.69
2018-07-14T06:36:54.610Z,98349.69
2018-07-14T06:37:59.467Z,98348.64
2018-07-14T06:39:02.303Z,98347.30
2018-07-14T06:40:05.446Z,98349.50
2018-07-14T06:41:08.289Z,98355.09
2018-07-14T06:42:11.075Z,98352.23
2018-07-14T06:43:14.809Z,98352.30
2018-07-14T06:44:19.382Z,98356.97
2018-07-14T06:45:22.233Z,98349.80
2018-07-14T06:46:27.072Z,98352.80
2018-07-14T06:47:30.832Z,98353.28
2018-07-14T06:48:33.730Z,98353.01
2018-07-14T06:49:36.574Z,98352.86
2018-07-14T06:50:39.375Z,98356.02
2018-07-14T06:51:42.822Z,98357.13
2018-07-14T06:52:46.959Z,98354.48
2018-07-14T06:53:51.094Z,98354.33
2018-07-14T06:54:53.961Z,98358.28
2018-07-14T06:55:56.802Z,98354.11
2018-07-14T06:56:59.791Z,98352.59
2018-07-14T06:58:02.673Z,98358.33
2018-07-14T06:59:05.799Z,98357.27
2018-07-14T07:00:08.746Z,98356.16
2018-07-14T07:01:12.543Z,98352.67
2018-07-14T07:02:16.240Z,98355.59
2018-07-14T07:03:19.971Z,98356.97
2018-07-14T07:04:22.840Z,98361.22
2018-07-14T07:05:26.771Z,98363.12
2018-07-14T07:06:30.258Z,98351.67
2018-07-14T07:07:33.135Z,98348.08
2018-07-14T07:08:35.993Z,98351.07
2018-07-14T07:09:38.833Z,98353.11
2018-07-14T07:10:46.894Z,98354.47
2018-07-14T07:11:50.067Z,98349.56
2018-07-14T07:12:54.533Z,98350.77
2018-07-14T07:13:57.408Z,98352.53
2018-07-14T07:15:00.269Z,98349.98
2018-07-14T07:16:03.521Z,98348.97
2018-07-14T07:17:08.029Z,98354.56
2018-07-14T07:18:12.876Z,98356.36
2018-07-14T07:19:16.213Z,98351.94
2018-07-14T07:20:19.138Z,98345.95
2018-07-14T07:21:22.042Z,98352.36
2018-07-14T07:22:24.916Z,98353.79
2018-07-14T07:23:27.920Z,98358.34
2018-07-14T07:24:31.853Z,98355.02
2018-07-14T07:25:34.896Z,98353.92
2018-07-14T07:26:37.810Z,98352.52
2018-07-14T07:27:40.685Z,98354.17
2018-07-14T07:28:43.594Z,98353.59
2018-07-14T07:29:46.463Z,98357.16
2018-07-14T07:30:50.552Z,98353.61
2018-07-14T07:31:53.682Z,98355.83
2018-07-14T07:32:59.576Z,98354.39
2018-07-14T07:34:03.491Z,98355.36
2018-07-14T07:35:06.957Z,98350.59
2018-07-14T07:36:13.197Z,98352.78
2018-07-14T07:37:16.535Z,98353.15
2018-07-14T07:38:19.513Z,98356.94
2018-07-14T07:39:24.604Z,98356.78
2018-07-14T07:40:27.823Z,98355.78
2018-07-14T07:41:31.470Z,98355.39
2018-07-14T07:42:34.643Z,98354.02
2018-07-14T07:43:38.457Z,98357.17
2018-07-14T07:44:44.240Z,98351.44
2018-07-14T07:45:47.145Z,98352.86
2018-07-14T07:46:50.230Z,98354.80
2018-07-14T07:47:54.085Z,98351.79
2018-07-14T07:48:59.663Z,98353.56
2018-07-14T07:50:02.853Z,98355.41
2018-07-14T07:51:05.807Z,98362.35
2018-07-14T07:52:08.727Z,98363.35
2018-07-14T07:53:11.640Z,98360.52
2018-07-14T07:54:14.774Z,98359.31
2018-07-14T07:55:17.672Z,98358.77
2018-07-14T07:56:21.211Z,98356.01
2018-07-14T07:57:24.809Z,98356.19
2018-07-14T07:58:28.509Z,98357.73
2018-07-14T07:59:31.370Z,98356.14
2018-07-14T08:00:39.065Z,98356.13
2018-07-14T08:01:41.988Z,98356.31
2018-07-14T08:02:45.178Z,98354.59
2018-07-14T08:03:48.325Z,98356.38
2018-07-14T08:04:51.789Z,98353.44
2018-07-14T08:05:54.690Z,98356.53
2018-07-14T08:06:57.545Z,98354.27
2018-07-14T08:08:01.260Z,98353.64
2018-07-14T08:09:05.038Z,98350.62
2018-07-14T08:10:07.953Z,98343.14
2018-07-14T08:11:11.528Z,98349.30
2018-07-14T08:12:15.697Z,98345.53
2018-07-14T08:13:18.586Z,98352.81
2018-07-14T08:14:22.473Z,98351.18
2018-07-14T08:15:25.988Z,98345.42
2018-07-14T08:16:29.500Z,98345.30
2018-07-14T08:17:32.339Z,98337.58
2018-07-14T08:18:36.086Z,98340.25
2018-07-14T08:19:39.080Z,98343.14
2018-07-14T08:20:42.829Z,98344.02
2018-07-14T08:21:47.501Z,98341.02
2018-07-14T08:22:51.372Z,98348.92
2018-07-14T08:23:57.934Z,98349.56
2018-07-14T08:25:01.418Z,98344.61
2018-07-14T08:26:04.397Z,98345.45
2018-07-14T08:27:07.220Z,98347.87
2018-07-14T08:28:11.273Z,98341.67
2018-07-14T08:29:14.771Z,98342.31
2018-07-14T08:30:17.590Z,98347.44
2018-07-14T08:31:21.264Z,98340.20
2018-07-14T08:32:24.098Z,98341.70
2018-07-14T08:33:29.864Z,98341.06
2018-07-14T08:34:33.930Z,98334.27
2018-07-14T08:35:37.061Z,98335.42
2018-07-14T08:36:39.957Z,98334.78
2018-07-14T08:37:42.876Z,98331.15
2018-07-14T08:38:45.994Z,98337.09
2018-07-14T08:39:49.488Z,98335.07
2018-07-14T08:40:52.638Z,98334.03
2018-07-14T08:41:57.598Z,98332.73
2018-07-14T08:43:00.663Z,98338.06
2018-07-14T08:44:07.532Z,98329.22
2018-07-14T08:45:10.454Z,98327.86
2018-07-14T08:46:14.361Z,98330.80
2018-07-14T08:47:21.054Z,98329.59
2018-07-14T08:48:24.679Z,98334.34
2018-07-14T08:49:28.951Z,98331.62
2018-07-14T08:50:32.803Z,98323.56
2018-07-14T08:51:37.153Z,98328.02
2018-07-14T08:52:40.169Z,98331.79
2018-07-14T08:53:45.640Z,98328.23
2018-07-14T08:54:49.440Z,98329.97
2018-07-14T08:55:54.070Z,98329.30
2018-07-14T08:57:00.845Z,98328.80
2018-07-14T08:58:05.189Z,98319.32
2018-07-14T08:59:09.538Z,98324.27
2018-07-14T09:00:13.970Z,98327.33
2018-07-14T09:01:17.961Z,98319.84
2018-07-14T09:02:22.291Z,98322.63
2018-07-14T09:03:29.280Z,98324.58
2018-07-14T09:04:38.415Z,98321.19
2018-07-14T09:05:42.496Z,98320.51
2018-07-14T09:06:45.350Z,98322.08
2018-07-14T09:07:49.014Z,98317.41
2018-07-14T09:08:54.655Z,98319.02
2018-07-14T09:09:57.663Z,98315.66
2018-07-14T09:12:11.375Z,98317.36
2018-07-14T09:13:15.299Z,98317.44
2018-07-14T09:14:19.194Z,98311.34
2018-07-14T09:15:22.095Z,98325.23
2018-07-14T09:16:25.204Z,98317.44
2018-07-14T09:17:28.480Z,98314.21
2018-07-14T09:18:31.329Z,98318.25
2018-07-14T09:20:22.600Z,98314.42
2018-07-14T09:21:27.612Z,98314.19
2018-07-14T09:22:33.383Z,98312.41
2018-07-14T09:23:37.321Z,98316.20
2018-07-14T09:24:42.250Z,98318.09
2018-07-14T09:25:45.057Z,98313.59
2018-07-14T09:26:48.830Z,98311.47
2018-07-14T09:27:51.888Z,98313.16
2018-07-14T09:28:55.390Z,98307.05
2018-07-14T09:29:59.896Z,98305.66
2018-07-14T09:31:04.472Z,98304.54
2018-07-14T09:32:07.369Z,98304.84
2018-07-14T09:33:12.502Z,98305.99
2018-07-14T09:34:16.199Z,98302.58
2018-07-14T09:35:19.041Z,98303.11
2018-07-14T09:36:22.296Z,98300.70
2018-07-14T09:37:25.237Z,98300.63
2018-07-14T09:38:29.639Z,98302.92
2018-07-14T09:39:34.447Z,98306.31
2018-07-14T09:40:37.365Z,98302.45
2018-07-14T09:41:40.340Z,98305.70
2018-07-14T09:42:43.476Z,98306.27
2018-07-14T09:43:47.478Z,98300.92
2018-07-14T09:44:50.504Z,98301.37
2018-07-14T09:45:54.310Z,98299.89
2018-07-14T09:46:57.958Z,98294.63
2018-07-14T09:48:01.520Z,98288.91
2018-07-14T09:49:10.675Z,98292.21
2018-07-14T09:50:15.087Z,98290.95
2018-07-14T09:51:19.660Z,98282.16
2018-07-14T09:52:23.619Z,98284.13
2018-07-14T09:53:26.440Z,98285.69
2018-07-14T09:54:29.445Z,98291.25
2018-07-14T09:55:34.990Z,98293.35
2018-07-14T09:56:37.938Z,98288.95
2018-07-14T09:57:42.241Z,98284.80
2018-07-14T09:58:45.278Z,98281.77
2018-07-14T09:59:48.429Z,98283.17
2018-07-14T10:00:59.068Z,98283.10
2018-07-14T10:02:04.595Z,98283.84
2018-07-14T10:03:08.427Z,98284.59
2018-07-14T10:04:12.408Z,98285.23
2018-07-14T10:05:15.560Z,98281.92
2018-07-14T10:06:20.061Z,98279.15
2018-07-14T10:07:24.215Z,98280.48
2018-07-14T10:08:27.867Z,98274.90
2018-07-14T10:09:31.530Z,98278.34
2018-07-14T10:10:34.629Z,98270.02
2018-07-14T10:11:37.528Z,98269.63
2018-07-14T10:12:40.399Z,98274.75
2018-07-14T10:13:43.555Z,98266.48
2018-07-14T10:14:46.365Z,98277.77
2018-07-14T10:15:49.237Z,98272.07
2018-07-14T10:16:52.074Z,98267.80
2018-07-14T10:17:54.957Z,98262.50
2018-07-14T10:18:57.907Z,98269.05
2018-07-14T10:20:01.223Z,98267.55
2018-07-14T10:21:05.129Z,98268.55
2018-07-14T10:22:08.735Z,98269.34
2018-07-14T10:23:14.678Z,98263.34
2018-07-14T10:24:17.617Z,98269.53
2018-07-14T10:25:20.927Z,98266.45
2018-07-14T10:26:24.339Z,98263.14
2018-07-14T10:27:27.267Z,98262.61
2018-07-14T10:28:30.815Z,98266.72
2018-07-14T10:29:33.869Z,98263.02
2018-07-14T10:30:38.060Z,98259.08
2018-07-14T10:31:41.698Z,98257.63
2018-07-14T10:32:46.437Z,98264.42
2018-07-14T10:33:50.771Z,98263.02
2018-07-14T10:34:53.677Z,98257.47
2018-07-14T10:35:58.749Z,98255.40
2018-07-14T10:37:02.512Z,98260.08
2018-07-14T10:38:05.466Z,98260.97
2018-07-14T10:39:09.766Z,98260.13
2018-07-14T10:40:12.637Z,98250.22
2018-07-14T10:41:15.766Z,98250.86
2018-07-14T10:42:19.778Z,98254.02
2018-07-14T10:43:22.945Z,98253.05
2018-07-14T10:44:25.823Z,98255.02
2018-07-14T10:45:28.962Z,98250.83
2018-07-14T10:46:31.822Z,98252.66
2018-07-14T10:47:34.699Z,98247.12
2018-07-14T10:48:37.680Z,98254.00
2018-07-14T10:49:40.631Z,98246.92
2018-07-14T10:50:43.531Z,98255.25
2018-07-14T10:51:47.561Z,98251.67
2018-07-14T10:52:50.491Z,98247.94
2018-07-14T10:53:53.300Z,98250.65
2018-07-14T10:54:56.531Z,98252.59
2018-07-14T10:56:00.363Z,98248.47
2018-07-14T10:57:04.059Z,98252.31
2018-07-14T10:58:07.259Z,98252.44
2018-07-14T10:59:10.130Z,98251.41
2018-07-14T11:00:13.748Z,98251.80
2018-07-14T11:01:16.566Z,98244.87
2018-07-14T11:02:19.410Z,98240.88
2018-07-14T11:03:22.272Z,98249.25
2018-07-14T11:04:25.180Z,98245.53
2018-07-14T11:05:27.981Z,98247.85
2018-07-14T11:06:30.814Z,98243.20
2018-07-14T11:07:33.708Z,98247.66
2018-07-14T11:08:36.584Z,98243.05
2018-07-14T11:09:41.210Z,98238.38
2018-07-14T11:10:44.993Z,98243.95
2018-07-14T11:11:47.824Z,98245.05
2018-07-14T11:12:51.649Z,98238.44
2018-07-14T11:13:54.788Z,98236.52
2018-07-14T11:14:58.248Z,98240.66
2018-07-14T11:16:03.281Z,98227.13
2018-07-14T11:17:08.232Z,98230.27
2018-07-14T11:18:12.450Z,98226.25
2018-07-14T11:19:15.281Z,98225.36
2018-07-14T11:20:18.447Z,98227.14
2018-07-14T11:21:21.294Z,98224.69
2018-07-14T11:22:26.399Z,98228.53
2018-07-14T11:23:32.680Z,98219.30
2018-07-14T11:24:38.625Z,98218.75
2018-07-14T11:25:42.324Z,98208.78
2018-07-14T11:26:46.633Z,98224.23
2018-07-14T11:27:51.141Z,98218.28
2018-07-14T11:28:54.748Z,98227.15
2018-07-14T11:29:57.572Z,98220.24
2018-07-14T11:31:00.589Z,98223.15
2018-07-14T11:32:03.436Z,98229.06
2018-07-14T11:33:09.800Z,98219.02
2018-07-14T11:34:12.646Z,98218.55
2018-07-14T11:35:18.869Z,98219.72
2018-07-14T11:36:21.693Z,98223.69
2018-07-14T11:37:24.719Z,98212.52
2018-07-14T11:38:27.526Z,98213.56
2018-07-14T11:39:30.353Z,98221.92
2018-07-14T11:40:33.205Z,98214.16
2018-07-14T11:41:36.460Z,98207.08
2018-07-14T11:42:39.287Z,98212.82
2018-07-14T11:43:43.670Z,98209.55
2018-07-14T11:44:46.553Z,98210.05
2018-07-14T11:45:49.414Z,98201.86
2018-07-14T11:46:52.220Z,98199.36
2018-07-14T11:47:58.639Z,98207.31
2018-07-14T11:49:02.983Z,98203.08
2018-07-14T11:50:07.307Z,98202.41
2018-07-14T11:51:11.102Z,98196.30
2018-07-14T11:52:13.933Z,98198.69
2018-07-14T11:53:16.798Z,98206.33
2018-07-14T11:54:20.141Z,98189.23
2018-07-14T11:55:22.996Z,98192.28
2018-07-14T11:56:25.948Z,98200.58
2018-07-14T11:57:28.773Z,98201.13
2018-07-14T11:58:31.602Z,98200.67
2018-07-14T11:59:34.488Z,98203.08
2018-07-14T12:00:38.542Z,98196.85
2018-07-14T12:01:41.460Z,98204.33
2018-07-14T12:02:45.456Z,98193.28
2018-07-14T12:03:48.276Z,98204.16
2018-07-14T12:04:51.096Z,98186.31
2018-07-14T12:05:54.592Z,98193.41
2018-07-14T12:06:58.767Z,98179.07
2018-07-14T12:08:01.700Z,98181.73
2018-07-14T12:09:07.609Z,98179.66
2018-07-14T12:10:11.577Z,98168.70
2018-07-14T12:11:15.424Z,98175.80
2018-07-14T12:12:18.864Z,98173.44
2018-07-14T12:13:23.516Z,98174.54
2018-07-14T12:14:28.158Z,98179.64
2018-07-14T12:15:30.962Z,98177.89
2018-07-14T12:16:33.861Z,98174.42
2018-07-14T12:17:37.476Z,98174.48
2018-07-14T12:18:41.398Z,98175.44
2018-07-14T12:19:49.676Z,98173.14
2018-07-14T12:20:52.479Z,98178.40
2018-07-14T12:21:55.462Z,98175.61
2018-07-14T12:22:58.865Z,98174.84
2018-07-14T12:24:02.938Z,98171.67
2018-07-14T12:25:05.897Z,98177.87
2018-07-14T12:26:10.068Z,98173.69